CNS weather

Cairns International Airport
Cairns, Queensland, Australia

Public forecast

Using degrees Celsius for public forecast. Weather courtesy of forecast.io.

METAR (pilot weather report)

Retrieved 2017/12/11 21:30 UTC (22 minutes ago):

YBCS 112130Z 17007KT 9999 FEW030 27/21 Q1012 NOSIG

TAF (pilot weather forecast)

Retrieved 2017/12/11 18:00 UTC (4 hours ago):

TAF YBCS 111656Z 1118/1218 16007KT 9999 FEW025 FM120000 12017KT 9999 FEW030 FM120900 16007KT 9999 FEW025